Stations météo

Publicité
Uccle, Belgique (6447): Température de l'air & dewpoint: 21.10.2020 18:00:00 - 27.10.2020 18:00:00 (CET)Uccle, Belgique (6447): Vitesse du vent & gusts: 21.10.2020 18:00:00 - 27.10.2020 18:00:00 (CET)Uccle, Belgique (6447): Direction du vent: 21.10.2020 18:00:00 - 27.10.2020 18:00:00 (CET)Uccle, Belgique (6447): reduced air pressure: 21.10.2020 18:00:00 - 27.10.2020 18:00:00 (CET)Uccle, Belgique (6447): Ensoleillement: 21.10.2020 18:00:00 - 27.10.2020 18:00:00 (CET)Uccle, Belgique (6447): Quantités de précipitations: 21.10.2020 18:00:00 - 27.10.2020 18:00:00 (CET)
Date & Time tt [°C] td [°C] ff [km/h] ff [knt] fx [km/h] fx [knt] dd ppp [hPa] sd [min] rr [mm]
27.10.2020 18:00:00 10,0 7,9 27 15 52 28 S 1001,9 0 0,1
27.10.2020 17:00:00 10,7 6,8 27 15 53 29 S 1002,6 0 0,0
27.10.2020 16:00:00 11,3 6,4 29 16 52 28 S 1003,1 0 0,0
27.10.2020 15:00:00 11,2 6,2 32 17 58 31 S 1003,9 0 0,0
27.10.2020 14:00:00 11,2 6,0 26 14 46 25 S 1004,7 0 0,0
27.10.2020 13:00:00 10,9 6,5 26 14 50 27 S 1005,3 1 0,0
27.10.2020 12:00:00 10,5 6,6 22 12 47 25 SSW 1005,8 0 0,0
27.10.2020 11:00:00 9,5 6,4 21 11 39 21 S 1005,8 0 0,0
27.10.2020 10:00:00 8,9 6,6 20 11 45 24 S 1006,0 0 0,0
27.10.2020 09:00:00 8,5 6,7 20 11 36 19 S 1005,8 0 0,1
27.10.2020 08:00:00 8,5 6,4 17 9 34 19 S 1005,5 0 0,0
27.10.2020 07:00:00 8,1 6,0 14 8 31 17 SSW 1005,2 0 0,0
27.10.2020 06:00:00 7,7 6,1 16 9 31 17 S 1004,7 0 0,0
27.10.2020 05:00:00 7,7 6,0 13 7 27 15 S 1004,3 0 0,0
27.10.2020 04:00:00 8,1 6,2 14 8 28 15 S 1004,2 0 0,0
27.10.2020 03:00:00 8,5 6,4 12 7 29 15 SSW 1004,2 0 0,0
27.10.2020 02:00:00 8,8 6,4 13 7 29 16 SSW 1004,2 0 0,0
27.10.2020 01:00:00 9,3 7,0 14 8 39 21 SSW 1004,0 0 0,0
27.10.2020 00:00:00 9,9 6,7 18 10 37 20 SW 1003,8 0 0,0
26.10.2020 23:00:00 9,7 6,4 19 10 40 22 SSW 1003,6 0 0,0
26.10.2020 22:00:00 10,0 6,5 16 9 43 23 SSW 1003,5 0 0,0
26.10.2020 21:00:00 10,3 6,5 21 11 40 22 SSW 1002,7 0 0,0
26.10.2020 20:00:00 10,6 6,3 19 11 45 24 SSW 1002,4 0 0,0
26.10.2020 19:00:00 10,9 6,6 18 10 35 19 S 1002,3 0 0,0
26.10.2020 18:00:00 11,0 6,1 16 9 41 22 SSW 1002,1 0 0,0
26.10.2020 17:00:00 11,6 6,1 18 10 47 26 SSW 1001,9 0 0,0
26.10.2020 16:00:00 11,7 5,9 21 11 46 25 SSW 1001,6 2 0,0
26.10.2020 15:00:00 12,3 5,7 17 9 49 27 SSW 1001,1 16 0,0
26.10.2020 14:00:00 12,2 5,5 26 14 49 26 SW 1001,1 31 0,0
26.10.2020 13:00:00 12,7 6,2 18 10 45 25 SSW 1001,1 44 0,0
26.10.2020 12:00:00 11,7 5,6 26 14 47 26 SSW 1001,5 54 0,0
26.10.2020 11:00:00 10,5 5,9 21 11 47 26 SW 1001,8 22 0,0
26.10.2020 10:00:00 9,2 5,7 20 11 42 23 SSW 1002,0 0 0,0
26.10.2020 09:00:00 8,9 5,5 18 10 37 20 SSW 1001,7 0 0,0
26.10.2020 08:00:00 8,7 6,1 14 7 33 18 SSW 1001,9 0 0,0
26.10.2020 07:00:00 8,6 5,8 14 8 36 19 S 1001,0 0 0,0
26.10.2020 06:00:00 8,8 6,5 17 9 34 18 SSW 1000,8 0 0,0
26.10.2020 05:00:00 9,2 7,0 13 7 26 14 SSW 1000,6 0 0,0
26.10.2020 04:00:00 9,3 7,5 16 9 32 18 SSW 1000,8 0 0,0
26.10.2020 03:00:00 9,0 7,6 13 7 28 15 SSW 1000,6 0 0,0
26.10.2020 02:00:00 9,5 7,8 14 7 31 17 SSW 1000,6 0 0,0
26.10.2020 01:00:00 9,6 8,1 18 10 28 15 S 1001,1 0 0,0
26.10.2020 00:00:00 9,5 8,2 16 9 30 16 S 1001,2 0 0,0
25.10.2020 23:00:00 9,5 8,2 12 7 27 14 S 1001,2 0 1,0
25.10.2020 22:00:00 10,7 8,8 10 5 32 17 SW 1001,6 0 0,2
25.10.2020 21:00:00 10,8 8,4 16 9 35 19 S 1001,5 0 0,0
25.10.2020 20:00:00 10,7 8,3 18 10 35 19 S 1001,5 0 0,0
25.10.2020 19:00:00 10,8 8,2 18 10 33 18 S 1001,7 0 0,0
25.10.2020 18:00:00 11,1 8,3 18 10 33 18 S 1001,9 0 0,0
25.10.2020 17:00:00 11,4 8,5 18 10 34 18 S 1001,9 0 0,0
25.10.2020 16:00:00 11,3 8,6 18 10 31 17 S 1001,6 0 0,0
25.10.2020 15:00:00 11,5 8,9 17 9 32 18 S 1001,5 0 0,0
25.10.2020 14:00:00 11,6 9,4 16 9 29 15 S 1001,9 0 0,0
25.10.2020 13:00:00 11,7 10,2 7 4 29 16 SW 1002,6 0 0,1
25.10.2020 12:00:00 11,2 9,5 12 7 29 16 S 1002,2 0 0,7
25.10.2020 11:00:00 11,7 9,0 16 8 37 20 S 1002,0 0 0,0
25.10.2020 10:00:00 12,1 9,8 20 11 40 22 SSW 1002,4 0 0,0
25.10.2020 09:00:00 11,7 10,1 18 10 40 22 S 1002,5 0 0,6
25.10.2020 08:00:00 11,4 10,0 18 10 45 25 SSW 1002,7 0 0,6
25.10.2020 07:00:00 10,5 9,2 18 10 34 19 SSW 1002,4 0 4,3
25.10.2020 06:00:00 11,4 9,2 23 12 56 30 WSW 1002,9 0 3,7
25.10.2020 05:00:00 13,6 9,9 33 18 79 43 S 1001,7 0 0,2
25.10.2020 04:00:00 14,6 9,5 32 17 67 36 S 1001,9 0 0,0
25.10.2020 03:00:00 14,5 9,7 27 15 74 40 S 1002,8 0 0,0
25.10.2020 02:00:00 14,9 9,7 31 17 65 35 S 1003,5 0 0,0
25.10.2020 01:00:00 - - - - - - - - - -
25.10.2020 00:00:00 14,6 11,0 32 17 71 39 S 1004,8 0 0,0
24.10.2020 23:00:00 15,3 10,7 29 16 60 32 S 1005,3 0 0,0
24.10.2020 22:00:00 15,3 11,1 29 16 55 30 S 1005,7 0 0,0
24.10.2020 21:00:00 15,3 11,4 29 16 61 33 S 1006,3 0 0,0
24.10.2020 20:00:00 15,1 11,6 34 19 57 31 S 1007,0 0 0,0
24.10.2020 19:00:00 14,7 11,9 29 16 52 28 S 1007,7 0 0,0
24.10.2020 18:00:00 14,6 11,4 23 13 48 26 S 1008,4 0 0,0
24.10.2020 17:00:00 14,9 11,5 26 14 55 30 S 1008,7 0 0,0
24.10.2020 16:00:00 15,2 11,5 26 14 47 26 S 1009,4 0 0,0
24.10.2020 15:00:00 14,9 11,8 23 13 48 26 SSW 1009,9 2 0,0
24.10.2020 14:00:00 13,7 12,1 23 13 49 26 S 1010,5 0 0,1
24.10.2020 13:00:00 13,5 11,5 21 11 47 26 S 1011,4 1 0,0
24.10.2020 12:00:00 14,5 10,4 24 13 49 27 SSW 1011,8 9 0,0
24.10.2020 11:00:00 13,5 10,2 23 12 44 24 SSW 1012,0 12 0,0
24.10.2020 10:00:00 12,1 10,5 22 12 44 24 S 1012,2 0 0,0
24.10.2020 09:00:00 11,7 10,6 22 12 47 25 SSW 1012,2 0 0,1
24.10.2020 08:00:00 11,6 10,4 21 11 41 22 SSW 1012,0 0 0,1
24.10.2020 07:00:00 11,6 10,2 22 12 37 20 S 1012,1 0 0,3
24.10.2020 06:00:00 12,3 9,8 18 10 44 24 S 1012,5 0 0,0
24.10.2020 05:00:00 12,3 9,7 16 9 33 18 SSW 1012,6 0 0,0
24.10.2020 04:00:00 12,5 9,6 16 9 35 19 SSW 1012,7 0 0,0
24.10.2020 03:00:00 12,8 9,8 16 9 31 17 SSW 1013,1 0 0,0
24.10.2020 02:00:00 12,8 10,1 13 7 27 15 SW 1013,1 0 0,0
24.10.2020 01:00:00 12,7 10,3 14 8 29 16 SW 1013,1 0 0,0
24.10.2020 00:00:00 12,8 10,4 16 9 29 16 SSW 1013,0 0 0,0
23.10.2020 23:00:00 12,6 10,2 9 5 21 11 SW 1013,2 0 0,0
23.10.2020 22:00:00 13,6 10,4 11 6 24 13 SW 1012,6 0 0,0
23.10.2020 21:00:00 14,4 9,9 15 8 27 15 SW 1011,7 0 0,0
23.10.2020 20:00:00 14,4 10,0 13 7 26 14 SW 1011,4 0 0,0
23.10.2020 19:00:00 14,4 10,0 14 8 24 13 SSW 1011,1 0 0,0
23.10.2020 18:00:00 15,1 10,2 11 6 24 13 SW 1010,9 2 0,0
23.10.2020 17:00:00 16,3 11,0 8 4 27 15 SW 1010,7 36 0,0
23.10.2020 16:00:00 17,1 10,5 17 9 34 18 SSW 1010,2 40 0,0
23.10.2020 15:00:00 17,1 11,3 10 5 26 14 SW 1010,1 46 0,0
23.10.2020 14:00:00 17,3 12,9 13 7 28 15 SSW 1010,3 21 0,0
23.10.2020 13:00:00 15,7 13,0 14 8 27 15 SSW 1010,4 6 0,0
23.10.2020 12:00:00 14,9 13,2 10 5 21 12 SW 1010,9 0 0,0
23.10.2020 11:00:00 14,5 13,4 8 5 19 10 SW 1011,0 0 0,0
23.10.2020 10:00:00 14,1 13,3 11 6 23 12 SSW 1010,8 0 0,1
23.10.2020 09:00:00 13,7 13,0 8 4 17 9 S 1011,0 0 0,0
23.10.2020 08:00:00 13,3 12,5 10 5 15 8 S 1010,8 0 0,0
23.10.2020 07:00:00 12,7 12,1 11 6 13 7 S 1010,7 0 0,0
23.10.2020 06:00:00 11,9 11,3 6 4 11 6 S 1010,9 0 0,0
23.10.2020 05:00:00 12,0 11,4 7 4 10 5 SSE 1011,1 0 0,0
23.10.2020 04:00:00 11,8 11,3 7 4 9 5 SSE 1011,8 0 0,0
23.10.2020 03:00:00 12,2 11,7 4 2 8 4 S 1012,0 0 0,0
23.10.2020 02:00:00 12,6 12,0 6 3 9 5 SSE 1012,6 0 0,0
23.10.2020 01:00:00 12,3 11,8 4 2 7 4 S 1012,7 0 0,0
23.10.2020 00:00:00 12,3 11,7 6 3 9 5 S 1013,0 0 0,0
22.10.2020 23:00:00 11,5 11,0 4 2 10 6 S 1012,9 0 0,0
22.10.2020 22:00:00 11,8 11,2 7 4 9 5 SW 1012,9 0 0,0
22.10.2020 21:00:00 12,6 11,6 4 2 13 7 WSW 1012,4 0 0,0
22.10.2020 20:00:00 13,2 12,0 7 4 13 7 SW 1012,3 0 0,0
22.10.2020 19:00:00 14,6 12,6 7 4 18 10 SSW 1012,2 0 0,0
22.10.2020 18:00:00 15,4 12,7 8 5 26 14 SW 1011,8 21 0,0
22.10.2020 17:00:00 16,0 13,6 11 6 19 10 SSW 1011,2 28 0,0
22.10.2020 16:00:00 15,7 13,8 9 5 19 11 W 1011,5 0 0,0
22.10.2020 15:00:00 15,7 13,5 10 6 27 15 WSW 1011,3 8 0,5
22.10.2020 14:00:00 16,4 13,2 13 7 23 13 SW 1011,3 3 0,0
22.10.2020 13:00:00 15,5 13,7 7 4 16 8 SW 1011,8 0 0,0
22.10.2020 12:00:00 14,7 13,5 8 4 19 11 SW 1012,1 0 0,3
22.10.2020 11:00:00 14,9 12,9 13 7 35 19 SSW 1012,1 0 0,0
22.10.2020 10:00:00 15,3 12,5 15 8 34 19 SSW 1012,1 3 0,0
22.10.2020 09:00:00 14,7 12,1 16 9 34 18 S 1011,8 48 0,0
22.10.2020 08:00:00 13,7 11,6 15 8 29 16 S 1011,0 8 0,0
22.10.2020 07:00:00 13,9 11,0 14 8 27 15 SSW 1010,5 0 0,0
22.10.2020 06:00:00 13,8 10,9 14 7 35 19 SSW 1010,2 0 0,0
22.10.2020 05:00:00 14,3 11,0 17 9 34 19 SSW 1010,1 0 0,0
22.10.2020 04:00:00 14,1 11,1 18 10 34 18 SSW 1009,9 0 0,0
22.10.2020 03:00:00 13,8 11,2 16 9 29 15 S 1009,8 0 0,0
22.10.2020 02:00:00 14,8 11,2 16 9 29 16 SSW 1009,5 0 0,0
22.10.2020 01:00:00 15,8 11,4 18 10 34 18 SSW 1009,1 0 0,0
22.10.2020 00:00:00 16,0 11,4 20 11 34 18 SW 1008,3 0 0,0
21.10.2020 23:00:00 15,5 12,4 14 8 25 13 SSW 1007,7 0 0,0
21.10.2020 22:00:00 15,4 13,0 8 4 28 15 WSW 1007,3 0 0,0
21.10.2020 21:00:00 16,7 12,4 18 10 49 27 W 1006,4 0 0,0
21.10.2020 20:00:00 18,4 11,6 22 12 55 30 SW 1005,0 0 0,0
21.10.2020 19:00:00 18,6 11,4 25 14 59 32 SW 1003,9 0 0,0
21.10.2020 18:00:00 18,9 12,0 29 16 70 38 SSW 1002,5 6 0,0

tt = Température de l'air
td = dewpoint
ff = Vitesse du vent
fx = gusts
dd = Direction du vent
ppp = reduced air pressure
sd = Ensoleillement
rr = Quantités de précipitations

stations d'obs. à proximité